KRNC/RNC METAR and TAF weather

Enter ICAO airport designator
Station Type Date Time Source
KRNC METAR 2022/08/13 11:35 UTC NOAA

KRNC 131135Z AUTO 03004KT 10SM CLR 15/15 A3011 RMK A01


Station Type Date Time Source
KRNC Decoded METAR 2022/08/13 11:35 UTC NOAA

Station name not available
Aug 13, 2022 - 07:35 AM EDT / 2022.08.13 1135 UTC
Wind: from the NNE (030 degrees) at 5 MPH (4 KT):0
Visibility: 10 mile(s):0
Sky conditions: clear
Temperature: 59 F (15 C)
Dew Point: 59 F (15 C)
Relative Humidity: 100%
Pressure (altimeter): 30.11 in. Hg (1019 hPa)
ob: KRNC 131135Z AUTO 03004KT 10SM CLR 15/15 A3011 RMK A01
cycle: 11

Station Type Date Time Source
KRNC TAF 2009/08/31 19:45 UTC NOAA

METAR KRNC 311945Z AUTO 35008KT 10SM CLR 25/12 A3011
RMK AO1 T02500116 $

Example: see airport list